sensor_id;sensor_type;location;lat;lon;timestamp;pressure;altitude;pressure_sealevel;temperature;humidity
40117;BME280;25829;50.228;18.936;2023-01-26T00:01:28;99277.69;;;-0.60;70.03
40117;BME280;25829;50.228;18.936;2023-01-26T00:04:29;99264.97;;;-0.74;70.40
40117;BME280;25829;50.228;18.936;2023-01-26T00:07:30;99266.97;;;-0.78;70.84
40117;BME280;25829;50.228;18.936;2023-01-26T00:10:30;99272.03;;;-0.76;70.83
40117;BME280;25829;50.228;18.936;2023-01-26T00:13:32;99263.56;;;-0.67;70.08
40117;BME280;25829;50.228;18.936;2023-01-26T00:16:33;99266.66;;;-0.62;70.64
40117;BME280;25829;50.228;18.936;2023-01-26T00:19:33;99259.22;;;-0.55;70.58
40117;BME280;25829;50.228;18.936;2023-01-26T00:22:34;99252.72;;;-0.50;70.13
40117;BME280;25829;50.228;18.936;2023-01-26T00:25:37;99244.72;;;-0.47;69.63
40117;BME280;25829;50.228;18.936;2023-01-26T00:28:39;99254.03;;;-0.55;69.15
40117;BME280;25829;50.228;18.936;2023-01-26T00:31:40;99242.28;;;-0.60;69.67
40117;BME280;25829;50.228;18.936;2023-01-26T00:34:41;99239.53;;;-0.58;70.01
40117;BME280;25829;50.228;18.936;2023-01-26T00:37:44;99243.69;;;-0.55;70.15
40117;BME280;25829;50.228;18.936;2023-01-26T00:40:48;99232.22;;;-0.53;69.97
40117;BME280;25829;50.228;18.936;2023-01-26T00:43:49;99232.94;;;-0.51;69.66
40117;BME280;25829;50.228;18.936;2023-01-26T00:46:49;99244.28;;;-0.52;69.33
40117;BME280;25829;50.228;18.936;2023-01-26T00:49:53;99236.38;;;-0.50;70.47
40117;BME280;25829;50.228;18.936;2023-01-26T00:52:57;99236.13;;;-0.47;70.09
40117;BME280;25829;50.228;18.936;2023-01-26T00:55:58;99228.22;;;-0.46;70.31
40117;BME280;25829;50.228;18.936;2023-01-26T00:58:59;99222.13;;;-0.45;69.86
40117;BME280;25829;50.228;18.936;2023-01-26T01:02:00;99228.13;;;-0.44;69.87
40117;BME280;25829;50.228;18.936;2023-01-26T01:05:02;99227.88;;;-0.41;69.95
40117;BME280;25829;50.228;18.936;2023-01-26T01:08:03;99227.75;;;-0.40;70.03
40117;BME280;25829;50.228;18.936;2023-01-26T01:11:09;99231.75;;;-0.36;69.93
40117;BME280;25829;50.228;18.936;2023-01-26T01:14:11;99223.75;;;-0.32;69.91
40117;BME280;25829;50.228;18.936;2023-01-26T01:17:12;99231.66;;;-0.34;70.08
40117;BME280;25829;50.228;18.936;2023-01-26T01:20:13;99230.00;;;-0.35;69.81
40117;BME280;25829;50.228;18.936;2023-01-26T01:23:15;99239.28;;;-0.32;70.58
40117;BME280;25829;50.228;18.936;2023-01-26T01:26:16;99224.09;;;-0.26;70.06
40117;BME280;25829;50.228;18.936;2023-01-26T01:29:17;99214.31;;;-0.22;69.83
40117;BME280;25829;50.228;18.936;2023-01-26T01:32:18;99209.50;;;-0.27;69.44
40117;BME280;25829;50.228;18.936;2023-01-26T01:35:20;99209.28;;;-0.35;69.76
40117;BME280;25829;50.228;18.936;2023-01-26T01:38:20;99197.94;;;-0.34;69.88
40117;BME280;25829;50.228;18.936;2023-01-26T01:41:24;99195.94;;;-0.30;70.39
40117;BME280;25829;50.228;18.936;2023-01-26T01:44:26;99202.16;;;-0.22;70.62
40117;BME280;25829;50.228;18.936;2023-01-26T01:47:27;99184.25;;;-0.14;70.39
40117;BME280;25829;50.228;18.936;2023-01-26T01:50:36;99186.94;;;-0.04;70.27
40117;BME280;25829;50.228;18.936;2023-01-26T01:53:41;99190.44;;;-0.05;70.13
40117;BME280;25829;50.228;18.936;2023-01-26T01:56:48;99188.56;;;-0.03;70.21
40117;BME280;25829;50.228;18.936;2023-01-26T02:00:03;99183.16;;;0.00;70.29
40117;BME280;25829;50.228;18.936;2023-01-26T02:03:13;99182.78;;;0.05;70.07
40117;BME280;25829;50.228;18.936;2023-01-26T02:09:32;99180.50;;;0.11;69.53
40117;BME280;25829;50.228;18.936;2023-01-26T02:12:54;99176.03;;;0.14;69.63
40117;BME280;25829;50.228;18.936;2023-01-26T02:15:58;99177.53;;;0.16;69.37
40117;BME280;25829;50.228;18.936;2023-01-26T02:18:59;99180.84;;;0.18;69.73
40117;BME280;25829;50.228;18.936;2023-01-26T02:22:06;99170.22;;;0.21;69.54
40117;BME280;25829;50.228;18.936;2023-01-26T02:28:30;99164.06;;;0.22;69.56
40117;BME280;25829;50.228;18.936;2023-01-26T02:31:32;99171.75;;;0.24;69.57
40117;BME280;25829;50.228;18.936;2023-01-26T02:34:33;99163.97;;;0.24;69.24
40117;BME280;25829;50.228;18.936;2023-01-26T02:37:34;99164.69;;;0.15;69.72
40117;BME280;25829;50.228;18.936;2023-01-26T02:40:54;99163.88;;;0.14;69.80
40117;BME280;25829;50.228;18.936;2023-01-26T02:43:55;99156.78;;;0.16;69.81
40117;BME280;25829;50.228;18.936;2023-01-26T02:46:56;99149.72;;;0.18;69.97
40117;BME280;25829;50.228;18.936;2023-01-26T02:49:57;99146.03;;;0.21;69.95
40117;BME280;25829;50.228;18.936;2023-01-26T02:53:02;99140.63;;;0.12;69.75
40117;BME280;25829;50.228;18.936;2023-01-26T02:56:04;99138.28;;;0.09;69.56
40117;BME280;25829;50.228;18.936;2023-01-26T02:59:06;99136.53;;;0.10;70.24
40117;BME280;25829;50.228;18.936;2023-01-26T03:02:08;99128.53;;;0.02;69.52
40117;BME280;25829;50.228;18.936;2023-01-26T03:05:09;99127.84;;;-0.00;70.22
40117;BME280;25829;50.228;18.936;2023-01-26T03:08:10;99122.53;;;0.01;69.76
40117;BME280;25829;50.228;18.936;2023-01-26T03:11:11;99119.44;;;0.07;70.15
40117;BME280;25829;50.228;18.936;2023-01-26T03:14:14;99107.88;;;0.11;69.86
40117;BME280;25829;50.228;18.936;2023-01-26T03:17:15;99109.41;;;0.14;70.22
40117;BME280;25829;50.228;18.936;2023-01-26T03:20:16;99099.69;;;0.16;69.71
40117;BME280;25829;50.228;18.936;2023-01-26T03:23:35;99107.22;;;0.19;69.97
40117;BME280;25829;50.228;18.936;2023-01-26T03:26:55;99108.75;;;0.22;69.55
40117;BME280;25829;50.228;18.936;2023-01-26T03:30:17;99105.59;;;0.18;69.12
40117;BME280;25829;50.228;18.936;2023-01-26T03:33:20;99101.94;;;0.21;69.78
40117;BME280;25829;50.228;18.936;2023-01-26T03:36:22;99104.97;;;0.26;70.06
40117;BME280;25829;50.228;18.936;2023-01-26T03:39:23;99101.41;;;0.27;69.83
40117;BME280;25829;50.228;18.936;2023-01-26T03:42:42;99091.47;;;0.11;68.38
40117;BME280;25829;50.228;18.936;2023-01-26T03:46:04;99104.53;;;-0.12;69.07
40117;BME280;25829;50.228;18.936;2023-01-26T03:49:23;99103.88;;;-0.25;69.34
40117;BME280;25829;50.228;18.936;2023-01-26T03:52:43;99091.16;;;-0.28;69.82
40117;BME280;25829;50.228;18.936;2023-01-26T03:56:04;99091.38;;;-0.20;70.13
40117;BME280;25829;50.228;18.936;2023-01-26T03:59:25;99080.94;;;-0.08;70.02
40117;BME280;25829;50.228;18.936;2023-01-26T04:02:41;99072.41;;;0.01;70.06
40117;BME280;25829;50.228;18.936;2023-01-26T04:06:00;99070.16;;;0.07;69.88
40117;BME280;25829;50.228;18.936;2023-01-26T04:09:23;99070.72;;;0.11;69.75
40117;BME280;25829;50.228;18.936;2023-01-26T04:12:24;99066.22;;;0.13;69.63
40117;BME280;25829;50.228;18.936;2023-01-26T04:15:39;99076.22;;;0.18;69.71
40117;BME280;25829;50.228;18.936;2023-01-26T04:18:59;99064.81;;;0.09;68.71
40117;BME280;25829;50.228;18.936;2023-01-26T04:22:20;99069.59;;;0.04;69.97
40117;BME280;25829;50.228;18.936;2023-01-26T04:25:21;99067.41;;;0.09;69.58
40117;BME280;25829;50.228;18.936;2023-01-26T04:28:23;99054.19;;;0.12;69.57
40117;BME280;25829;50.228;18.936;2023-01-26T04:31:24;99054.19;;;0.12;69.31
40117;BME280;25829;50.228;18.936;2023-01-26T04:34:25;99052.09;;;0.06;69.27
40117;BME280;25829;50.228;18.936;2023-01-26T04:37:26;99046.56;;;0.10;70.02
40117;BME280;25829;50.228;18.936;2023-01-26T04:40:27;99041.78;;;0.16;70.01
40117;BME280;25829;50.228;18.936;2023-01-26T04:43:27;99048.38;;;0.20;69.97
40117;BME280;25829;50.228;18.936;2023-01-26T04:46:28;99046.25;;;0.25;69.90
40117;BME280;25829;50.228;18.936;2023-01-26T04:49:29;99045.97;;;0.28;69.66
40117;BME280;25829;50.228;18.936;2023-01-26T04:52:30;99046.56;;;0.31;69.70
40117;BME280;25829;50.228;18.936;2023-01-26T04:55:31;99039.44;;;0.33;69.60
40117;BME280;25829;50.228;18.936;2023-01-26T04:58:32;99043.94;;;0.31;69.20
40117;BME280;25829;50.228;18.936;2023-01-26T05:01:33;99040.66;;;0.29;69.24
40117;BME280;25829;50.228;18.936;2023-01-26T05:04:35;99044.31;;;0.27;69.59
40117;BME280;25829;50.228;18.936;2023-01-26T05:07:37;99037.25;;;0.29;69.73
40117;BME280;25829;50.228;18.936;2023-01-26T05:10:38;99031.09;;;0.30;68.96
40117;BME280;25829;50.228;18.936;2023-01-26T05:13:55;99021.41;;;0.32;69.13
40117;BME280;25829;50.228;18.936;2023-01-26T05:16:59;99019.25;;;0.37;69.44
40117;BME280;25829;50.228;18.936;2023-01-26T05:20:14;99019.00;;;0.40;68.96
40117;BME280;25829;50.228;18.936;2023-01-26T05:23:35;99019.00;;;0.40;69.44
40117;BME280;25829;50.228;18.936;2023-01-26T05:26:56;99011.19;;;0.40;69.27
40117;BME280;25829;50.228;18.936;2023-01-26T05:30:18;99015.00;;;0.36;68.62
40117;BME280;25829;50.228;18.936;2023-01-26T05:33:20;99013.22;;;0.36;69.09
40117;BME280;25829;50.228;18.936;2023-01-26T05:36:22;99016.22;;;0.32;68.83
40117;BME280;25829;50.228;18.936;2023-01-26T05:39:22;99012.81;;;0.31;69.03
40117;BME280;25829;50.228;18.936;2023-01-26T05:42:24;99023.31;;;0.30;68.96
40117;BME280;25829;50.228;18.936;2023-01-26T05:45:41;99017.84;;;0.33;69.26
40117;BME280;25829;50.228;18.936;2023-01-26T05:48:44;99015.41;;;0.31;68.95
40117;BME280;25829;50.228;18.936;2023-01-26T05:51:45;99018.50;;;0.25;68.95
40117;BME280;25829;50.228;18.936;2023-01-26T05:54:47;99023.13;;;0.22;69.45
40117;BME280;25829;50.228;18.936;2023-01-26T05:57:49;99026.53;;;0.22;69.67
40117;BME280;25829;50.228;18.936;2023-01-26T06:00:49;99020.69;;;0.20;69.64
40117;BME280;25829;50.228;18.936;2023-01-26T06:03:57;99022.56;;;0.18;69.34
40117;BME280;25829;50.228;18.936;2023-01-26T06:07:00;99016.91;;;0.13;69.35
40117;BME280;25829;50.228;18.936;2023-01-26T06:10:05;99017.75;;;0.14;69.45
40117;BME280;25829;50.228;18.936;2023-01-26T06:13:29;99020.09;;;0.17;69.54
40117;BME280;25829;50.228;18.936;2023-01-26T06:16:48;99024.75;;;0.23;69.50
40117;BME280;25829;50.228;18.936;2023-01-26T06:19:49;99026.38;;;0.14;69.60
40117;BME280;25829;50.228;18.936;2023-01-26T06:22:51;99020.97;;;0.06;69.96
40117;BME280;25829;50.228;18.936;2023-01-26T06:25:51;99023.69;;;0.04;69.99
40117;BME280;25829;50.228;18.936;2023-01-26T06:28:53;99026.16;;;0.06;69.80
40117;BME280;25829;50.228;18.936;2023-01-26T06:31:54;99030.16;;;0.10;70.35
40117;BME280;25829;50.228;18.936;2023-01-26T06:34:55;99024.97;;;0.10;69.56
40117;BME280;25829;50.228;18.936;2023-01-26T06:37:58;99023.81;;;0.03;69.78
40117;BME280;25829;50.228;18.936;2023-01-26T06:41:00;99014.28;;;0.03;69.98
40117;BME280;25829;50.228;18.936;2023-01-26T06:44:07;99033.00;;;0.07;69.99
40117;BME280;25829;50.228;18.936;2023-01-26T06:47:08;99030.84;;;0.12;70.46
40117;BME280;25829;50.228;18.936;2023-01-26T06:50:15;99020.22;;;0.15;70.21
40117;BME280;25829;50.228;18.936;2023-01-26T06:56:51;99011.63;;;-0.06;70.08
40117;BME280;25829;50.228;18.936;2023-01-26T07:00:21;98997.44;;;-0.23;69.99
40117;BME280;25829;50.228;18.936;2023-01-26T07:03:54;99007.28;;;-0.38;70.71
40117;BME280;25829;50.228;18.936;2023-01-26T07:06:55;99005.31;;;-0.46;70.58
40117;BME280;25829;50.228;18.936;2023-01-26T07:09:55;99000.63;;;-0.52;71.13
40117;BME280;25829;50.228;18.936;2023-01-26T07:12:57;99000.16;;;-0.57;70.77
40117;BME280;25829;50.228;18.936;2023-01-26T07:16:11;98989.34;;;-0.62;70.88
40117;BME280;25829;50.228;18.936;2023-01-26T07:19:12;98990.75;;;-0.58;71.57
40117;BME280;25829;50.228;18.936;2023-01-26T07:22:13;98992.38;;;-0.57;71.31
40117;BME280;25829;50.228;18.936;2023-01-26T07:25:14;98989.56;;;-0.54;71.64
40117;BME280;25829;50.228;18.936;2023-01-26T07:28:15;98994.97;;;-0.57;71.23
40117;BME280;25829;50.228;18.936;2023-01-26T07:31:15;98990.03;;;-0.60;71.24
40117;BME280;25829;50.228;18.936;2023-01-26T07:34:16;98994.31;;;-0.59;71.06
40117;BME280;25829;50.228;18.936;2023-01-26T07:37:17;98991.09;;;-0.51;71.09
40117;BME280;25829;50.228;18.936;2023-01-26T07:40:18;98993.06;;;-0.44;71.13
40117;BME280;25829;50.228;18.936;2023-01-26T07:43:19;98988.69;;;-0.43;71.50
40117;BME280;25829;50.228;18.936;2023-01-26T07:46:28;98997.16;;;-0.41;71.33
40117;BME280;25829;50.228;18.936;2023-01-26T07:49:30;98996.72;;;-0.46;71.47
40117;BME280;25829;50.228;18.936;2023-01-26T07:52:31;98993.63;;;-0.40;71.48
40117;BME280;25829;50.228;18.936;2023-01-26T07:55:32;98992.19;;;-0.33;71.27
40117;BME280;25829;50.228;18.936;2023-01-26T07:58:32;98996.41;;;-0.32;70.71
40117;BME280;25829;50.228;18.936;2023-01-26T08:01:34;98998.06;;;-0.31;71.34
40117;BME280;25829;50.228;18.936;2023-01-26T08:04:35;98991.34;;;-0.33;70.65
40117;BME280;25829;50.228;18.936;2023-01-26T08:07:36;98994.34;;;-0.38;70.74
40117;BME280;25829;50.228;18.936;2023-01-26T08:10:37;98995.25;;;-0.39;70.90
40117;BME280;25829;50.228;18.936;2023-01-26T08:13:37;98994.44;;;-0.40;71.13
40117;BME280;25829;50.228;18.936;2023-01-26T08:16:38;98997.13;;;-0.30;71.69
40117;BME280;25829;50.228;18.936;2023-01-26T08:19:39;98993.78;;;-0.21;70.84
40117;BME280;25829;50.228;18.936;2023-01-26T08:22:40;98983.97;;;-0.17;70.54
40117;BME280;25829;50.228;18.936;2023-01-26T08:25:40;98973.59;;;-0.17;69.98
40117;BME280;25829;50.228;18.936;2023-01-26T08:28:41;98979.28;;;-0.23;70.12
40117;BME280;25829;50.228;18.936;2023-01-26T08:31:42;98982.28;;;-0.28;70.25
40117;BME280;25829;50.228;18.936;2023-01-26T08:34:43;98990.41;;;-0.32;70.26
40117;BME280;25829;50.228;18.936;2023-01-26T08:37:44;98987.81;;;-0.32;70.48
40117;BME280;25829;50.228;18.936;2023-01-26T08:40:50;98989.34;;;-0.30;70.55
40117;BME280;25829;50.228;18.936;2023-01-26T08:43:51;98988.94;;;-0.25;70.48
40117;BME280;25829;50.228;18.936;2023-01-26T08:46:52;98988.78;;;-0.13;70.94
40117;BME280;25829;50.228;18.936;2023-01-26T08:49:53;98980.09;;;-0.02;70.03
40117;BME280;25829;50.228;18.936;2023-01-26T08:52:54;98988.91;;;0.07;70.51
40117;BME280;25829;50.228;18.936;2023-01-26T08:56:00;98988.13;;;0.16;70.46
40117;BME280;25829;50.228;18.936;2023-01-26T08:59:04;98987.38;;;0.25;70.60
40117;BME280;25829;50.228;18.936;2023-01-26T09:02:07;98993.69;;;0.32;69.75
40117;BME280;25829;50.228;18.936;2023-01-26T09:05:08;98992.47;;;0.36;70.10
40117;BME280;25829;50.228;18.936;2023-01-26T09:08:09;98992.78;;;0.43;69.77
40117;BME280;25829;50.228;18.936;2023-01-26T09:11:15;98994.31;;;0.46;69.59
40117;BME280;25829;50.228;18.936;2023-01-26T09:14:15;98982.69;;;0.50;69.70
40117;BME280;25829;50.228;18.936;2023-01-26T09:17:16;98985.28;;;0.50;68.90
40117;BME280;25829;50.228;18.936;2023-01-26T09:20:18;98988.03;;;0.48;68.86
40117;BME280;25829;50.228;18.936;2023-01-26T09:23:19;98989.41;;;0.52;69.47
40117;BME280;25829;50.228;18.936;2023-01-26T09:26:29;98980.44;;;0.66;69.10
40117;BME280;25829;50.228;18.936;2023-01-26T09:29:30;98980.03;;;0.71;69.12
40117;BME280;25829;50.228;18.936;2023-01-26T09:32:31;98978.97;;;0.73;68.86
40117;BME280;25829;50.228;18.936;2023-01-26T09:35:32;98979.06;;;0.62;67.92
40117;BME280;25829;50.228;18.936;2023-01-26T09:38:33;98979.84;;;0.53;68.08
40117;BME280;25829;50.228;18.936;2023-01-26T09:45:32;98974.91;;;0.50;68.40
40117;BME280;25829;50.228;18.936;2023-01-26T09:48:48;98971.44;;;0.40;68.50
40117;BME280;25829;50.228;18.936;2023-01-26T09:52:20;98961.31;;;0.36;69.32
40117;BME280;25829;50.228;18.936;2023-01-26T09:55:55;98956.69;;;0.40;69.08
40117;BME280;25829;50.228;18.936;2023-01-26T09:59:17;98955.91;;;0.49;69.06
40117;BME280;25829;50.228;18.936;2023-01-26T10:02:46;98953.47;;;0.57;68.63
40117;BME280;25829;50.228;18.936;2023-01-26T10:05:59;98957.03;;;0.56;68.75
40117;BME280;25829;50.228;18.936;2023-01-26T10:09:26;98961.72;;;0.63;68.56
40117;BME280;25829;50.228;18.936;2023-01-26T10:12:35;98961.19;;;0.69;68.42
40117;BME280;25829;50.228;18.936;2023-01-26T10:15:40;98954.44;;;0.56;67.68
40117;BME280;25829;50.228;18.936;2023-01-26T10:18:56;98949.41;;;0.55;68.38
40117;BME280;25829;50.228;18.936;2023-01-26T10:22:04;98947.72;;;0.54;68.12
40117;BME280;25829;50.228;18.936;2023-01-26T10:25:13;98942.97;;;0.59;68.75
40117;BME280;25829;50.228;18.936;2023-01-26T10:31:22;98940.69;;;0.75;68.34
40117;BME280;25829;50.228;18.936;2023-01-26T10:34:26;98934.97;;;0.81;68.22
40117;BME280;25829;50.228;18.936;2023-01-26T10:37:28;98930.31;;;0.85;67.69
40117;BME280;25829;50.228;18.936;2023-01-26T10:40:41;98937.16;;;0.76;67.72
40117;BME280;25829;50.228;18.936;2023-01-26T10:43:52;98930.59;;;0.72;67.87
40117;BME280;25829;50.228;18.936;2023-01-26T10:47:13;98922.38;;;0.77;68.44
40117;BME280;25829;50.228;18.936;2023-01-26T10:50:28;98924.84;;;0.78;68.04
40117;BME280;25829;50.228;18.936;2023-01-26T10:53:31;98922.66;;;0.74;68.05
40117;BME280;25829;50.228;18.936;2023-01-26T10:56:34;98922.25;;;0.78;68.27
40117;BME280;25829;50.228;18.936;2023-01-26T10:59:47;98918.72;;;0.79;68.36
40117;BME280;25829;50.228;18.936;2023-01-26T11:02:54;98909.53;;;0.85;68.32
40117;BME280;25829;50.228;18.936;2023-01-26T11:06:07;98912.97;;;0.86;67.91
40117;BME280;25829;50.228;18.936;2023-01-26T11:09:27;98900.81;;;0.86;67.68
40117;BME280;25829;50.228;18.936;2023-01-26T11:27:35;98906.16;;;0.94;67.87
40117;BME280;25829;50.228;18.936;2023-01-26T11:30:49;98895.06;;;1.02;67.96
40117;BME280;25829;50.228;18.936;2023-01-26T11:50:41;98873.06;;;1.16;66.85
40117;BME280;25829;50.228;18.936;2023-01-26T12:00:21;98864.88;;;1.11;67.37
40117;BME280;25829;50.228;18.936;2023-01-26T12:06:45;98848.97;;;1.23;67.46
40117;BME280;25829;50.228;18.936;2023-01-26T12:09:48;98843.66;;;1.25;66.65
40117;BME280;25829;50.228;18.936;2023-01-26T12:13:03;98835.16;;;1.23;66.87
40117;BME280;25829;50.228;18.936;2023-01-26T12:16:20;98841.16;;;1.33;67.28
40117;BME280;25829;50.228;18.936;2023-01-26T12:26:15;98822.25;;;1.50;66.59
40117;BME280;25829;50.228;18.936;2023-01-26T12:29:27;98827.72;;;1.57;66.77
40117;BME280;25829;50.228;18.936;2023-01-26T12:32:40;98818.66;;;1.61;66.80
40117;BME280;25829;50.228;18.936;2023-01-26T12:36:23;98818.78;;;1.69;66.43
40117;BME280;25829;50.228;18.936;2023-01-26T12:39:59;98807.00;;;1.65;65.74
40117;BME280;25829;50.228;18.936;2023-01-26T12:46:20;98806.91;;;1.57;65.67
40117;BME280;25829;50.228;18.936;2023-01-26T12:49:33;98808.81;;;1.55;66.13
40117;BME280;25829;50.228;18.936;2023-01-26T12:52:48;98812.25;;;1.55;65.80
40117;BME280;25829;50.228;18.936;2023-01-26T12:56:20;98808.25;;;1.61;65.67
40117;BME280;25829;50.228;18.936;2023-01-26T12:59:41;98804.59;;;1.54;64.79
40117;BME280;25829;50.228;18.936;2023-01-26T13:06:20;98810.94;;;1.32;65.08
40117;BME280;25829;50.228;18.936;2023-01-26T13:09:24;98806.56;;;1.23;65.86
40117;BME280;25829;50.228;18.936;2023-01-26T13:12:55;98806.16;;;1.27;65.56
40117;BME280;25829;50.228;18.936;2023-01-26T13:19:50;98806.72;;;1.31;65.54
40117;BME280;25829;50.228;18.936;2023-01-26T13:23:01;98803.00;;;1.24;65.50
40117;BME280;25829;50.228;18.936;2023-01-26T13:29:32;98810.69;;;1.25;65.99
40117;BME280;25829;50.228;18.936;2023-01-26T13:35:40;98796.16;;;1.33;65.95
40117;BME280;25829;50.228;18.936;2023-01-26T13:38:46;98802.34;;;1.31;65.92
40117;BME280;25829;50.228;18.936;2023-01-26T13:41:53;98803.28;;;1.30;66.15
40117;BME280;25829;50.228;18.936;2023-01-26T13:45:04;98801.09;;;1.36;66.34
40117;BME280;25829;50.228;18.936;2023-01-26T13:48:17;98800.00;;;1.38;66.85
40117;BME280;25829;50.228;18.936;2023-01-26T13:51:33;98803.78;;;1.44;66.12
40117;BME280;25829;50.228;18.936;2023-01-26T13:54:34;98796.69;;;1.46;66.22
40117;BME280;25829;50.228;18.936;2023-01-26T13:57:36;98787.91;;;1.47;65.86
40117;BME280;25829;50.228;18.936;2023-01-26T14:00:40;98793.66;;;1.41;65.79
40117;BME280;25829;50.228;18.936;2023-01-26T14:03:44;98787.66;;;1.40;66.13
40117;BME280;25829;50.228;18.936;2023-01-26T14:07:09;98787.53;;;1.42;65.42
40117;BME280;25829;50.228;18.936;2023-01-26T14:10:19;98790.53;;;1.37;66.19
40117;BME280;25829;50.228;18.936;2023-01-26T14:13:35;98782.34;;;1.32;65.71
40117;BME280;25829;50.228;18.936;2023-01-26T14:16:36;98788.66;;;1.29;65.56
40117;BME280;25829;50.228;18.936;2023-01-26T14:19:39;98786.22;;;1.18;65.42
40117;BME280;25829;50.228;18.936;2023-01-26T14:22:43;98787.19;;;1.07;65.94
40117;BME280;25829;50.228;18.936;2023-01-26T14:29:28;98794.81;;;1.09;66.72
40117;BME280;25829;50.228;18.936;2023-01-26T14:32:29;98789.34;;;1.12;66.36
40117;BME280;25829;50.228;18.936;2023-01-26T14:35:30;98799.19;;;1.18;66.71
40117;BME280;25829;50.228;18.936;2023-01-26T14:38:43;98795.22;;;1.24;66.27
40117;BME280;25829;50.228;18.936;2023-01-26T14:41:46;98792.06;;;1.20;65.67
40117;BME280;25829;50.228;18.936;2023-01-26T14:44:48;98794.72;;;1.11;66.12
40117;BME280;25829;50.228;18.936;2023-01-26T14:47:49;98782.94;;;1.06;66.50
40117;BME280;25829;50.228;18.936;2023-01-26T14:50:51;98781.19;;;1.07;66.55
40117;BME280;25829;50.228;18.936;2023-01-26T14:53:59;98768.84;;;1.09;66.49
40117;BME280;25829;50.228;18.936;2023-01-26T14:57:06;98777.19;;;1.13;67.13
40117;BME280;25829;50.228;18.936;2023-01-26T15:00:22;98778.97;;;1.12;66.59
40117;BME280;25829;50.228;18.936;2023-01-26T15:03:36;98774.72;;;1.11;66.88
40117;BME280;25829;50.228;18.936;2023-01-26T15:06:38;98781.72;;;1.11;67.16
40117;BME280;25829;50.228;18.936;2023-01-26T15:09:39;98771.31;;;1.11;66.79
40117;BME280;25829;50.228;18.936;2023-01-26T15:12:41;98772.25;;;1.10;66.35
40117;BME280;25829;50.228;18.936;2023-01-26T15:15:44;98772.41;;;1.08;66.98
40117;BME280;25829;50.228;18.936;2023-01-26T15:19:04;98776.38;;;1.12;67.43
40117;BME280;25829;50.228;18.936;2023-01-26T15:22:20;98779.66;;;1.14;67.51
40117;BME280;25829;50.228;18.936;2023-01-26T15:25:27;98781.28;;;1.15;67.40
40117;BME280;25829;50.228;18.936;2023-01-26T15:28:31;98771.00;;;1.14;67.53
40117;BME280;25829;50.228;18.936;2023-01-26T15:31:36;98777.72;;;1.16;67.25
40117;BME280;25829;50.228;18.936;2023-01-26T15:34:38;98784.59;;;1.17;67.62
40117;BME280;25829;50.228;18.936;2023-01-26T15:37:41;98779.22;;;1.19;67.42
40117;BME280;25829;50.228;18.936;2023-01-26T15:40:42;98784.44;;;1.19;67.35
40117;BME280;25829;50.228;18.936;2023-01-26T15:43:42;98785.41;;;1.18;67.59
40117;BME280;25829;50.228;18.936;2023-01-26T15:46:44;98782.91;;;1.16;67.26
40117;BME280;25829;50.228;18.936;2023-01-26T15:49:45;98782.78;;;1.18;67.80
40117;BME280;25829;50.228;18.936;2023-01-26T15:52:45;98778.41;;;1.18;67.18
40117;BME280;25829;50.228;18.936;2023-01-26T15:55:48;98776.63;;;1.19;67.71
40117;BME280;25829;50.228;18.936;2023-01-26T15:58:52;98776.78;;;1.17;67.44
40117;BME280;25829;50.228;18.936;2023-01-26T16:01:52;98782.25;;;1.14;67.33
40117;BME280;25829;50.228;18.936;2023-01-26T16:04:53;98779.25;;;1.09;67.91
40117;BME280;25829;50.228;18.936;2023-01-26T16:08:25;98771.31;;;1.01;67.32
40117;BME280;25829;50.228;18.936;2023-01-26T16:11:32;98767.22;;;0.98;67.78
40117;BME280;25829;50.228;18.936;2023-01-26T16:14:33;98767.38;;;0.97;68.02
40117;BME280;25829;50.228;18.936;2023-01-26T16:17:34;98776.66;;;0.99;68.27
40117;BME280;25829;50.228;18.936;2023-01-26T16:20:36;98789.50;;;1.01;68.12
40117;BME280;25829;50.228;18.936;2023-01-26T16:23:38;98780.75;;;1.02;67.96
40117;BME280;25829;50.228;18.936;2023-01-26T16:26:38;98768.47;;;1.04;68.38
40117;BME280;25829;50.228;18.936;2023-01-26T16:29:39;98768.19;;;1.07;67.77
40117;BME280;25829;50.228;18.936;2023-01-26T16:32:40;98770.78;;;1.07;67.93
40117;BME280;25829;50.228;18.936;2023-01-26T16:35:42;98776.78;;;1.07;68.36
40117;BME280;25829;50.228;18.936;2023-01-26T16:38:43;98766.25;;;1.09;67.84
40117;BME280;25829;50.228;18.936;2023-01-26T16:41:44;98773.91;;;1.11;67.78
40117;BME280;25829;50.228;18.936;2023-01-26T16:44:45;98768.03;;;1.08;67.72
40117;BME280;25829;50.228;18.936;2023-01-26T16:47:51;98766.25;;;1.09;67.77
40117;BME280;25829;50.228;18.936;2023-01-26T16:50:54;98767.06;;;1.10;67.71
40117;BME280;25829;50.228;18.936;2023-01-26T16:53:55;98762.84;;;1.08;67.42
40117;BME280;25829;50.228;18.936;2023-01-26T16:56:56;98761.47;;;1.04;67.98
40117;BME280;25829;50.228;18.936;2023-01-26T16:59:57;98759.84;;;1.03;67.74
40117;BME280;25829;50.228;18.936;2023-01-26T17:02:57;98762.72;;;1.00;67.72
40117;BME280;25829;50.228;18.936;2023-01-26T17:05:58;98768.19;;;0.97;67.87
40117;BME280;25829;50.228;18.936;2023-01-26T17:12:23;98762.31;;;0.95;68.04
40117;BME280;25829;50.228;18.936;2023-01-26T17:15:31;98761.91;;;0.90;68.38
40117;BME280;25829;50.228;18.936;2023-01-26T17:18:35;98767.78;;;0.92;68.16
40117;BME280;25829;50.228;18.936;2023-01-26T17:21:35;98761.91;;;0.90;68.36
40117;BME280;25829;50.228;18.936;2023-01-26T17:24:36;98765.16;;;0.92;68.73
40117;BME280;25829;50.228;18.936;2023-01-26T17:27:37;98777.06;;;0.95;68.68
40117;BME280;25829;50.228;18.936;2023-01-26T17:30:38;98759.97;;;0.92;68.63
40117;BME280;25829;50.228;18.936;2023-01-26T17:33:46;98769.28;;;0.95;68.99
40117;BME280;25829;50.228;18.936;2023-01-26T17:36:47;98764.25;;;0.93;68.16
40117;BME280;25829;50.228;18.936;2023-01-26T17:39:47;98767.66;;;0.94;68.46
40117;BME280;25829;50.228;18.936;2023-01-26T17:42:48;98771.72;;;0.96;68.70
40117;BME280;25829;50.228;18.936;2023-01-26T17:45:49;98767.38;;;0.97;68.56
40117;BME280;25829;50.228;18.936;2023-01-26T17:48:50;98767.22;;;0.98;68.63
40117;BME280;25829;50.228;18.936;2023-01-26T17:51:51;98772.28;;;1.00;68.68